Time;durP1;ratioP1;P1;durP2;ratioP2;P2;SDS_P1;SDS_P2;PMS_P1;PMS_P2;Temp;Humidity;BMP_temperature;BMP_pressure;BME280_temperature;BME280_humidity;BME280_pressure;Samples;Min_cycle;Max_cycle;Signal;HPM_P1;HPM_P2
2022/08/18 00:02:02;;;;;;;4.43;4.03;;;27.20;92.20;;;;;;6140270;23;20389;-94
2022/08/18 00:04:28;;;;;;;4.90;4.40;;;27.20;91.90;;;;;;6132260;23;20512;-93
2022/08/18 00:06:53;;;;;;;4.60;4.20;;;27.10;91.90;;;;;;6132626;23;20396;-93
2022/08/18 00:09:19;;;;;;;4.73;4.33;;;27.10;91.70;;;;;;6155032;23;20641;-93
2022/08/18 00:11:45;;;;;;;4.60;4.17;;;27.10;91.80;;;;;;6157005;23;20178;-93
2022/08/18 00:14:17;;;;;;;5.10;4.70;;;27.00;91.80;;;;;;6158862;23;20156;-93
2022/08/18 00:16:43;;;;;;;5.40;4.93;;;27.00;91.80;;;;;;6157312;23;20163;-93
2022/08/18 00:19:09;;;;;;;5.90;5.40;;;27.00;91.90;;;;;;6156586;23;20440;-93
2022/08/18 00:21:35;;;;;;;5.13;4.10;;;26.90;92.00;;;;;;6157208;23;20382;-93
2022/08/18 00:24:01;;;;;;;4.43;4.03;;;26.90;92.20;;;;;;6159481;23;20378;-93
2022/08/18 00:26:27;;;;;;;5.00;4.60;;;26.80;92.30;;;;;;6157263;23;20593;-93
2022/08/18 00:28:52;;;;;;;4.50;4.10;;;26.80;92.70;;;;;;6158015;23;20608;-93
2022/08/18 00:31:18;;;;;;;4.93;4.50;;;26.80;92.40;;;;;;6163311;23;20163;-92
2022/08/18 00:33:44;;;;;;;5.87;3.93;;;26.70;92.50;;;;;;6174340;23;20163;-93
2022/08/18 00:36:11;;;;;;;5.40;4.90;;;26.70;92.50;;;;;;6157389;23;20182;-93
2022/08/18 00:38:38;;;;;;;5.13;4.27;;;26.60;92.50;;;;;;6158514;23;20247;-93
2022/08/18 00:41:04;;;;;;;4.37;3.97;;;26.60;92.50;;;;;;6158229;23;20401;-93
2022/08/18 00:43:46;;;;;;;4.87;4.47;;;26.60;92.50;;;;;;6158491;23;20405;-92
2022/08/18 00:46:19;;;;;;;7.80;4.83;;;26.50;92.70;;;;;;6161685;23;20720;-94
2022/08/18 00:48:45;;;;;;;5.77;4.43;;;26.50;93.00;;;;;;6161119;23;20839;-93
2022/08/18 00:51:17;;;;;;;5.30;4.80;;;26.50;93.00;;;;;;6160482;23;20405;-93
2022/08/18 00:54:05;;;;;;;4.83;4.43;;;26.40;92.90;;;;;;6163143;23;20404;-92
2022/08/18 00:56:38;;;;;;;5.73;4.40;;;26.40;93.20;;;;;;6160435;23;20409;-93
2022/08/18 00:59:14;;;;;;;4.20;3.87;;;26.40;93.40;;;;;;6159826;23;20487;-93
2022/08/18 01:01:42;;;;;;;6.03;4.57;;;26.40;93.60;;;;;;6157660;23;20488;-93
2022/08/18 01:04:16;;;;;;;4.63;4.03;;;26.30;93.50;;;;;;6157177;23;20396;-93
2022/08/18 01:06:47;;;;;;;8.13;4.60;;;26.30;93.60;;;;;;6158346;23;20773;-93
2022/08/18 01:09:13;;;;;;;4.87;4.47;;;26.20;93.60;;;;;;6157902;23;20444;-93
2022/08/18 01:11:40;;;;;;;4.83;4.43;;;26.20;93.70;;;;;;6160191;23;20401;-93
2022/08/18 01:14:07;;;;;;;5.00;4.60;;;26.20;93.70;;;;;;6161359;23;20855;-93
2022/08/18 01:22:14;;;;;;;4.90;4.10;;;26.10;94.00;;;;;;6160529;23;20361;-93
2022/08/18 01:27:29;;;;;;;6.70;4.37;;;26.00;94.50;;;;;;6160031;23;20360;-93
2022/08/18 01:29:54;;;;;;;5.07;4.57;;;26.00;94.20;;;;;;6159282;23;20400;-93
2022/08/18 01:32:22;;;;;;;8.30;4.57;;;26.00;94.10;;;;;;6158625;23;20485;-93
2022/08/18 01:34:50;;;;;;;7.37;4.90;;;26.00;94.10;;;;;;6158656;23;20185;-93
2022/08/18 01:37:18;;;;;;;4.73;4.30;;;25.90;94.10;;;;;;6158597;23;20527;-93
2022/08/18 01:39:45;;;;;;;6.33;4.57;;;25.90;94.40;;;;;;6159169;23;20501;-92
2022/08/18 01:42:13;;;;;;;9.60;4.80;;;25.90;94.50;;;;;;6159113;23;20407;-91
2022/08/18 01:44:42;;;;;;;5.57;4.50;;;25.80;94.50;;;;;;6169792;23;20443;-93
2022/08/18 01:47:09;;;;;;;5.40;4.90;;;25.80;94.60;;;;;;6174920;23;20377;-92
2022/08/18 01:49:36;;;;;;;5.03;4.53;;;25.80;94.60;;;;;;6163040;23;20499;-93
2022/08/18 01:52:05;;;;;;;6.93;5.60;;;25.80;94.70;;;;;;6163928;23;20388;-93
2022/08/18 01:54:31;;;;;;;5.17;4.70;;;25.80;94.70;;;;;;6163550;23;20499;-93
2022/08/18 01:56:57;;;;;;;5.97;5.10;;;25.70;94.70;;;;;;6158730;23;20440;-93
2022/08/18 01:59:24;;;;;;;5.67;4.60;;;25.70;94.80;;;;;;6160793;23;20448;-93
2022/08/18 02:01:54;;;;;;;5.10;4.67;;;25.60;94.90;;;;;;6160194;23;20369;-93
2022/08/18 02:04:27;;;;;;;5.27;4.77;;;25.60;94.90;;;;;;6158924;23;20492;-93
2022/08/18 02:06:54;;;;;;;5.83;5.00;;;25.60;94.90;;;;;;6158260;23;20381;-93
2022/08/18 02:09:21;;;;;;;6.37;4.50;;;25.60;94.90;;;;;;6158554;23;20473;-94
2022/08/18 02:11:46;;;;;;;6.27;5.17;;;25.50;95.10;;;;;;6158960;23;20893;-93
2022/08/18 02:14:12;;;;;;;5.70;5.10;;;25.50;95.20;;;;;;6158877;23;20424;-92
2022/08/18 02:16:38;;;;;;;7.63;5.00;;;25.40;95.20;;;;;;6158310;23;20197;-93
2022/08/18 02:19:03;;;;;;;6.10;5.10;;;25.40;95.30;;;;;;6159656;23;20255;-94
2022/08/18 02:21:29;;;;;;;6.30;4.53;;;25.40;95.40;;;;;;6166542;23;20158;-92
2022/08/18 02:23:55;;;;;;;8.23;5.00;;;25.40;95.60;;;;;;6172715;23;20170;-93
2022/08/18 02:26:22;;;;;;;6.90;5.80;;;25.30;95.60;;;;;;6161313;23;20222;-92
2022/08/18 02:28:48;;;;;;;5.10;4.60;;;25.30;96.10;;;;;;6158517;23;20174;-94
2022/08/18 02:31:18;;;;;;;6.00;4.80;;;25.30;95.80;;;;;;6158226;23;20405;-93
2022/08/18 02:33:45;;;;;;;5.53;4.93;;;25.30;96.20;;;;;;6158780;23;20863;-93
2022/08/18 02:36:11;;;;;;;5.30;4.80;;;25.20;95.80;;;;;;6158542;23;20404;-93
2022/08/18 02:38:37;;;;;;;5.73;5.23;;;25.20;95.80;;;;;;6158500;23;20452;-93
2022/08/18 02:41:05;;;;;;;5.93;5.37;;;25.20;95.90;;;;;;6158171;23;20404;-93
2022/08/18 02:43:31;;;;;;;6.10;4.03;;;25.20;96.00;;;;;;6159712;23;20403;-93
2022/08/18 02:45:57;;;;;;;8.17;5.77;;;25.20;96.10;;;;;;6158300;23;20499;-93
2022/08/18 02:48:30;;;;;;;6.53;6.03;;;25.20;96.10;;;;;;6158561;23;20885;-93
2022/08/18 02:51:07;;;;;;;5.87;5.27;;;25.10;96.20;;;;;;6158153;23;20636;-93
2022/08/18 02:53:34;;;;;;;5.03;4.50;;;25.10;96.30;;;;;;6159235;23;20416;-93
2022/08/18 02:56:24;;;;;;;5.60;5.10;;;25.00;96.40;;;;;;6163494;23;20408;-93
2022/08/18 02:58:55;;;;;;;5.57;5.00;;;25.00;96.60;;;;;;6163933;23;20479;-92
2022/08/18 03:01:24;;;;;;;5.47;4.50;;;25.00;96.70;;;;;;6158409;23;20400;-93
2022/08/18 03:03:49;;;;;;;5.83;5.07;;;25.00;96.70;;;;;;6157540;23;20482;-91
2022/08/18 03:06:16;;;;;;;6.87;5.07;;;25.00;96.80;;;;;;6159695;23;20395;-93
2022/08/18 03:08:47;;;;;;;6.10;5.50;;;25.00;96.90;;;;;;6164846;23;20281;-93
2022/08/18 03:11:14;;;;;;;5.70;4.97;;;25.00;97.00;;;;;;6165845;23;20427;-93
2022/08/18 03:13:39;;;;;;;5.50;5.00;;;25.00;97.00;;;;;;6135185;23;20490;-93
2022/08/18 03:16:06;;;;;;;6.10;5.50;;;24.90;97.00;;;;;;6132878;23;20397;-93
2022/08/18 03:18:32;;;;;;;6.67;5.97;;;25.00;97.10;;;;;;6133497;23;20214;-93
2022/08/18 03:21:05;;;;;;;5.90;5.30;;;24.90;97.10;;;;;;6158564;23;20427;-93
2022/08/18 03:23:31;;;;;;;10.67;5.50;;;24.90;97.10;;;;;;6132695;23;20406;-93
2022/08/18 03:25:56;;;;;;;5.77;5.20;;;24.90;97.10;;;;;;6132530;23;20408;-93
2022/08/18 03:28:22;;;;;;;6.90;5.57;;;24.90;97.20;;;;;;6158906;23;20219;-93
2022/08/18 03:30:48;;;;;;;6.07;5.47;;;24.90;97.60;;;;;;6158534;23;20171;-92
2022/08/18 03:33:13;;;;;;;6.90;5.20;;;24.90;97.30;;;;;;6132317;23;20170;-92
2022/08/18 03:35:40;;;;;;;8.27;6.17;;;24.90;97.30;;;;;;6132705;23;20242;-92
2022/08/18 03:38:06;;;;;;;7.73;5.43;;;24.90;97.30;;;;;;6159039;23;20201;-92
2022/08/18 03:40:32;;;;;;;5.70;5.10;;;24.80;97.70;;;;;;6132794;23;20409;-94
2022/08/18 03:42:58;;;;;;;8.27;5.17;;;24.80;97.60;;;;;;6133002;23;20170;-93
2022/08/18 03:45:27;;;;;;;6.73;5.43;;;24.80;97.50;;;;;;6134361;23;20408;-92
2022/08/18 03:47:53;;;;;;;8.73;5.83;;;24.80;97.50;;;;;;6134531;23;20421;-94
2022/08/18 03:50:18;;;;;;;6.83;5.43;;;24.80;97.30;;;;;;6133017;23;20431;-93
2022/08/18 03:52:47;;;;;;;8.20;5.10;;;24.80;97.50;;;;;;6133214;23;20163;-93
2022/08/18 03:55:14;;;;;;;6.17;5.07;;;24.80;97.70;;;;;;6133259;23;20649;-92
2022/08/18 03:57:44;;;;;;;141.73;73.27;;;24.80;97.90;;;;;;6132974;23;20866;-93
2022/08/18 04:00:11;;;;;;;29.13;18.50;;;24.70;98.00;;;;;;6131387;23;20404;-93
2022/08/18 04:02:38;;;;;;;11.93;7.93;;;24.70;98.10;;;;;;6132507;23;20384;-95
2022/08/18 04:05:05;;;;;;;6.57;5.83;;;24.70;98.10;;;;;;6134809;23;20415;-95
2022/08/18 04:07:30;;;;;;;14.10;5.83;;;24.70;98.30;;;;;;6138867;23;20447;-93
2022/08/18 04:09:56;;;;;;;6.80;6.10;;;24.60;98.30;;;;;;6156682;23;20416;-93
2022/08/18 04:12:22;;;;;;;7.73;5.70;;;24.60;98.50;;;;;;6156592;23;20162;-93
2022/08/18 04:14:48;;;;;;;7.67;5.40;;;24.60;98.60;;;;;;6156283;23;20475;-93
2022/08/18 04:17:16;;;;;;;11.20;7.30;;;24.60;98.80;;;;;;6156621;23;20181;-93
2022/08/18 04:19:42;;;;;;;6.37;5.53;;;24.60;98.80;;;;;;6155471;23;20454;-95
2022/08/18 04:22:07;;;;;;;9.20;7.33;;;24.60;98.90;;;;;;6156615;23;20717;-94
2022/08/18 04:24:33;;;;;;;11.60;6.57;;;24.60;98.90;;;;;;6156451;23;20229;-93
2022/08/18 04:27:03;;;;;;;7.70;7.00;;;24.60;99.10;;;;;;6156937;23;20600;-93
2022/08/18 04:29:29;;;;;;;10.40;7.33;;;24.60;99.20;;;;;;6156284;23;20444;-93
2022/08/18 04:31:55;;;;;;;12.03;6.03;;;24.60;99.40;;;;;;6156465;23;20442;-94
2022/08/18 04:34:21;;;;;;;11.57;7.00;;;24.60;99.50;;;;;;6156658;23;20186;-95
2022/08/18 04:36:48;;;;;;;6.77;5.63;;;24.60;99.60;;;;;;6156754;23;20453;-94
2022/08/18 04:39:14;;;;;;;7.97;6.90;;;24.60;99.60;;;;;;6157006;23;20543;-94
2022/08/18 04:41:42;;;;;;;7.30;6.23;;;24.70;99.60;;;;;;6161073;23;20376;-93
2022/08/18 04:44:09;;;;;;;7.93;7.17;;;24.70;99.60;;;;;;6161084;23;20431;-95
2022/08/18 04:46:38;;;;;;;6.70;6.00;;;24.70;99.60;;;;;;6162888;23;20387;-94
2022/08/18 04:49:06;;;;;;;9.23;5.57;;;24.70;99.60;;;;;;6162551;23;20400;-93
2022/08/18 04:51:33;;;;;;;7.70;6.20;;;24.80;99.70;;;;;;6168743;23;20373;-93
2022/08/18 04:53:59;;;;;;;8.80;6.67;;;24.80;99.80;;;;;;6160338;23;20948;-95
2022/08/18 04:56:29;;;;;;;10.30;6.53;;;24.80;99.90;;;;;;6159253;23;20520;-93
2022/08/18 04:58:56;;;;;;;196.80;101.73;;;24.90;99.90;;;;;;6160743;23;20454;-94
2022/08/18 05:01:25;;;;;;;41.80;26.23;;;24.90;99.90;;;;;;6159870;23;20451;-93
2022/08/18 05:03:53;;;;;;;11.30;8.73;;;24.90;99.90;;;;;;6160202;23;20407;-95
2022/08/18 05:06:24;;;;;;;6.93;6.20;;;25.00;99.50;;;;;;6159899;23;20901;-96
2022/08/18 05:09:01;;;;;;;5.90;5.40;;;25.00;99.40;;;;;;6159934;23;20984;-93
2022/08/18 05:11:28;;;;;;;11.30;5.87;;;25.00;99.50;;;;;;6159900;23;20435;-93
2022/08/18 05:13:57;;;;;;;7.50;6.27;;;25.00;99.40;;;;;;6160218;23;20401;-94
2022/08/18 05:16:24;;;;;;;7.20;6.20;;;25.10;99.30;;;;;;6160453;23;20407;-95
2022/08/18 05:18:52;;;;;;;5.83;5.23;;;25.10;99.00;;;;;;6160141;23;20459;-93
2022/08/18 05:21:18;;;;;;;6.80;5.63;;;25.20;98.80;;;;;;6160054;23;20415;-92
2022/08/18 05:23:47;;;;;;;10.17;5.73;;;25.20;98.80;;;;;;6158950;23;20499;-94
2022/08/18 05:26:14;;;;;;;8.37;6.37;;;25.20;98.70;;;;;;6158357;23;20400;-93
2022/08/18 05:28:41;;;;;;;11.20;6.07;;;25.30;98.70;;;;;;6158557;23;20735;-93
2022/08/18 05:31:10;;;;;;;8.37;6.37;;;25.30;98.60;;;;;;6158857;23;20419;-94
2022/08/18 05:33:40;;;;;;;6.47;5.50;;;25.40;98.70;;;;;;6159428;23;20397;-95
2022/08/18 05:36:23;;;;;;;10.57;6.13;;;25.40;98.40;;;;;;6163502;23;20468;-93
2022/08/18 05:38:57;;;;;;;6.83;5.73;;;25.50;98.30;;;;;;6163431;23;20854;-93
2022/08/18 05:41:36;;;;;;;6.43;5.50;;;25.50;98.10;;;;;;6161050;23;20377;-94
2022/08/18 05:44:02;;;;;;;7.73;5.90;;;25.50;98.10;;;;;;6161756;23;20409;-93
2022/08/18 05:46:45;;;;;;;6.43;5.40;;;25.60;98.20;;;;;;6163159;23;20381;-93
2022/08/18 05:49:12;;;;;;;7.37;5.43;;;25.60;98.40;;;;;;6161302;23;20400;-93
2022/08/18 05:51:42;;;;;;;6.83;5.83;;;25.70;98.00;;;;;;6160930;23;20412;-95
2022/08/18 05:56:56;;;;;;;8.50;5.50;;;25.80;98.00;;;;;;6161304;23;20385;-92
2022/08/18 05:59:31;;;;;;;7.33;4.97;;;25.90;97.80;;;;;;6157031;23;20507;-92
2022/08/18 06:02:17;;;;;;;7.83;4.90;;;26.00;97.70;;;;;;6157897;23;20468;-94
2022/08/18 06:04:52;;;;;;;5.63;4.80;;;26.00;97.50;;;;;;6158546;23;20440;-91
2022/08/18 06:07:35;;;;;;;5.40;4.37;;;26.10;97.30;;;;;;6159781;23;20376;-93
2022/08/18 06:10:05;;;;;;;7.87;4.80;;;26.20;97.20;;;;;;6135124;23;20409;-92
2022/08/18 06:12:34;;;;;;;6.03;5.10;;;26.20;97.00;;;;;;6132807;23;20463;-91
2022/08/18 06:15:13;;;;;;;6.50;5.00;;;26.30;96.90;;;;;;6132529;23;20417;-91
2022/08/18 06:17:57;;;;;;;10.93;5.30;;;26.40;96.90;;;;;;6133205;23;20951;-93
2022/08/18 06:20:46;;;;;;;6.17;5.10;;;26.40;96.80;;;;;;6134263;23;20416;-94
2022/08/18 06:23:27;;;;;;;5.83;5.23;;;26.50;96.60;;;;;;6130974;23;20405;-93
2022/08/18 06:26:26;;;;;;;6.97;5.63;;;26.60;96.70;;;;;;6130159;23;20736;-93
2022/08/18 06:29:21;;;;;;;7.30;4.93;;;26.70;97.10;;;;;;6138747;23;20436;-94
2022/08/18 06:32:16;;;;;;;7.67;5.30;;;26.80;96.90;;;;;;6133039;23;20680;-91
2022/08/18 06:34:51;;;;;;;6.00;5.23;;;26.90;97.20;;;;;;6136926;23;20426;-92
2022/08/18 06:37:33;;;;;;;5.83;5.30;;;26.90;97.30;;;;;;6130328;23;20396;-92
2022/08/18 06:39:59;;;;;;;5.37;4.80;;;27.00;97.40;;;;;;6129952;23;20927;-92
2022/08/18 06:42:29;;;;;;;6.70;5.00;;;27.10;96.90;;;;;;6130648;23;20385;-91
2022/08/18 06:45:17;;;;;;;4.77;4.37;;;27.20;96.50;;;;;;6131563;23;20417;-94
2022/08/18 06:47:58;;;;;;;5.50;5.00;;;27.20;96.60;;;;;;6133147;23;20404;-94
2022/08/18 06:50:42;;;;;;;5.70;5.20;;;27.40;96.50;;;;;;6130909;23;20471;-92
2022/08/18 06:53:08;;;;;;;7.57;5.17;;;27.40;96.40;;;;;;6130537;23;20398;-94
2022/08/18 06:55:43;;;;;;;9.23;4.87;;;27.50;96.30;;;;;;6133170;23;20415;-91
2022/08/18 06:58:15;;;;;;;7.70;4.50;;;27.60;96.00;;;;;;6159036;23;20631;-94
2022/08/18 07:01:01;;;;;;;5.17;4.30;;;27.70;95.80;;;;;;6136120;23;20884;-93
2022/08/18 07:03:36;;;;;;;6.33;5.20;;;27.80;95.80;;;;;;6131541;23;20433;-92
2022/08/18 07:06:22;;;;;;;4.13;3.83;;;27.90;95.60;;;;;;6130487;23;20460;-93
2022/08/18 07:08:51;;;;;;;4.73;4.30;;;28.00;95.40;;;;;;6145099;23;20511;-92
2022/08/18 07:11:22;;;;;;;5.00;4.20;;;28.10;95.20;;;;;;6153257;23;20453;-94
2022/08/18 07:13:51;;;;;;;5.90;5.40;;;28.20;95.10;;;;;;6157030;23;20400;-95
2022/08/18 07:16:31;;;;;;;7.00;4.80;;;28.20;95.00;;;;;;6152413;23;20750;-93
2022/08/18 07:19:08;;;;;;;6.40;5.27;;;28.30;94.90;;;;;;6153787;23;20448;-92
2022/08/18 07:21:42;;;;;;;6.60;4.73;;;28.40;94.80;;;;;;6154290;23;20415;-93
2022/08/18 07:24:27;;;;;;;6.07;4.80;;;28.50;94.90;;;;;;6154046;23;20410;-94
2022/08/18 07:27:04;;;;;;;5.63;4.70;;;28.60;94.80;;;;;;6158000;23;20401;-93
2022/08/18 07:29:34;;;;;;;6.03;4.57;;;28.70;94.30;;;;;;6155920;23;20487;-92
2022/08/18 07:32:21;;;;;;;4.70;4.20;;;28.80;94.10;;;;;;6155376;23;20459;-93
2022/08/18 07:34:53;;;;;;;4.83;4.33;;;28.90;93.80;;;;;;6159141;23;20475;-92
2022/08/18 07:37:29;;;;;;;4.80;4.30;;;29.00;93.80;;;;;;6159377;23;20458;-95
2022/08/18 07:40:02;;;;;;;4.90;4.50;;;29.00;93.60;;;;;;6167509;23;20432;-95
2022/08/18 07:42:38;;;;;;;9.17;5.40;;;29.10;93.50;;;;;;6156816;23;20365;-94
2022/08/18 07:45:35;;;;;;;5.57;4.93;;;29.20;93.50;;;;;;6157087;23;20422;-95
2022/08/18 07:48:04;;;;;;;8.10;5.13;;;29.30;93.20;;;;;;6155824;23;20401;-94
2022/08/18 07:50:43;;;;;;;7.90;5.10;;;29.50;93.00;;;;;;6156396;23;20413;-94
2022/08/18 07:53:17;;;;;;;6.30;4.70;;;29.60;92.80;;;;;;6158070;23;20400;-94
2022/08/18 07:55:52;;;;;;;8.30;5.17;;;29.70;92.70;;;;;;6156916;23;20421;-95
2022/08/18 07:58:29;;;;;;;6.00;4.90;;;29.80;92.60;;;;;;6155598;23;20455;-94
2022/08/18 08:01:13;;;;;;;6.90;4.00;;;29.90;92.70;;;;;;6155238;23;20406;-95
2022/08/18 08:03:51;;;;;;;5.03;4.60;;;30.00;92.50;;;;;;6156264;23;20399;-94
2022/08/18 08:06:32;;;;;;;5.70;4.80;;;30.10;92.40;;;;;;6155242;23;20432;-94
2022/08/18 08:09:21;;;;;;;4.97;4.43;;;30.20;92.00;;;;;;6152852;23;20469;-95
2022/08/18 08:11:59;;;;;;;5.90;5.30;;;30.30;91.80;;;;;;6149631;23;20398;-93
2022/08/18 08:14:46;;;;;;;6.70;4.67;;;30.40;92.10;;;;;;6146188;23;20439;-93
2022/08/18 08:17:39;;;;;;;8.53;4.53;;;30.50;91.70;;;;;;6148917;23;20409;-94
2022/08/18 08:20:29;;;;;;;5.40;4.90;;;30.60;91.50;;;;;;6158133;23;20425;-95
2022/08/18 08:23:24;;;;;;;7.60;4.63;;;30.80;91.00;;;;;;6153725;23;20495;-95
2022/08/18 08:26:22;;;;;;;4.33;3.93;;;30.90;90.60;;;;;;6151990;23;20412;-94
2022/08/18 08:28:47;;;;;;;4.60;4.20;;;31.00;90.20;;;;;;6154707;23;20459;-94
2022/08/18 08:31:18;;;;;;;4.83;3.73;;;31.20;88.70;;;;;;6154736;23;20413;-92
2022/08/18 08:33:54;;;;;;;4.03;3.70;;;31.20;88.30;;;;;;6154500;23;20170;-92
2022/08/18 08:36:29;;;;;;;6.03;4.40;;;31.30;88.30;;;;;;6154538;23;20377;-93
2022/08/18 08:39:02;;;;;;;4.20;3.70;;;31.50;88.00;;;;;;6165253;23;20460;-92
2022/08/18 08:41:37;;;;;;;6.50;3.90;;;31.60;87.60;;;;;;6157742;23;20412;-92
2022/08/18 08:44:48;;;;;;;7.30;4.47;;;31.70;88.50;;;;;;6159998;23;20423;-94
2022/08/18 08:47:23;;;;;;;5.10;3.73;;;31.80;88.10;;;;;;6104631;23;20393;-92
2022/08/18 08:50:15;;;;;;;4.30;3.90;;;31.90;88.40;;;;;;6157454;23;20408;-92
2022/08/18 08:53:15;;;;;;;4.30;3.93;;;32.00;87.30;;;;;;6151702;23;20401;-95
2022/08/18 08:55:50;;;;;;;3.97;3.67;;;32.20;86.70;;;;;;6153569;23;20496;-92
2022/08/18 08:58:27;;;;;;;4.40;4.00;;;32.20;87.10;;;;;;6154103;23;20452;-94
2022/08/18 09:00:53;;;;;;;3.70;3.23;;;32.30;87.20;;;;;;6158540;23;20432;-95
2022/08/18 09:03:46;;;;;;;5.00;3.87;;;32.40;86.20;;;;;;6156821;23;20456;-93
2022/08/18 09:06:44;;;;;;;5.90;4.03;;;32.50;83.40;;;;;;6152607;23;20420;-94
2022/08/18 09:09:26;;;;;;;3.63;3.27;;;33.00;81.90;;;;;;6088223;23;20448;-95
2022/08/18 09:12:21;;;;;;;4.30;3.47;;;33.40;81.70;;;;;;6157105;23;20385;-95
2022/08/18 09:15:11;;;;;;;4.23;3.60;;;33.80;79.80;;;;;;6152829;23;20405;-94
2022/08/18 09:17:58;;;;;;;3.33;2.90;;;34.00;80.00;;;;;;6154790;23;20401;-95
2022/08/18 09:20:36;;;;;;;5.53;3.80;;;34.00;81.10;;;;;;6154976;23;20413;-94
2022/08/18 09:23:07;;;;;;;3.43;3.10;;;33.90;81.60;;;;;;6161521;23;20798;-94
2022/08/18 09:25:50;;;;;;;3.90;3.60;;;33.80;81.80;;;;;;6156972;23;20398;-95
2022/08/18 09:28:22;;;;;;;4.27;3.97;;;33.60;82.10;;;;;;6154026;23;20452;-94
2022/08/18 09:30:47;;;;;;;4.50;3.80;;;33.60;82.30;;;;;;6156101;23;20488;-95
2022/08/18 09:33:13;;;;;;;4.97;3.73;;;33.40;81.80;;;;;;6154397;23;20417;-93
2022/08/18 09:36:26;;;;;;;4.50;4.10;;;33.50;80.80;;;;;;6152990;23;20183;-94
2022/08/18 09:41:36;;;;;;;3.73;3.43;;;33.40;81.50;;;;;;6154175;23;20569;-76
2022/08/18 09:44:11;;;;;;;3.50;3.20;;;33.40;81.60;;;;;;6153933;23;20439;-76
2022/08/18 09:46:42;;;;;;;4.80;3.73;;;33.30;82.10;;;;;;6154750;23;20392;-76
2022/08/18 09:49:26;;;;;;;3.90;3.50;;;33.20;82.20;;;;;;6151978;23;20893;-76
2022/08/18 09:51:53;;;;;;;6.93;4.33;;;33.20;81.50;;;;;;6154604;23;20399;-76
2022/08/18 09:54:41;;;;;;;3.87;3.57;;;33.20;82.20;;;;;;6150635;23;20491;-75
2022/08/18 09:57:34;;;;;;;5.17;4.30;;;33.30;81.80;;;;;;6152302;23;20733;-76
2022/08/18 10:00:03;;;;;;;4.83;3.73;;;33.30;81.60;;;;;;6152592;23;20937;-77
2022/08/18 10:02:29;;;;;;;3.80;3.50;;;33.30;81.70;;;;;;6152614;23;20390;-78
2022/08/18 10:05:40;;;;;;;4.50;3.67;;;33.30;80.00;;;;;;6153334;23;20456;-78
2022/08/18 10:08:57;;;;;;;3.90;3.60;;;33.30;80.20;;;;;;6148050;23;20159;-77
2022/08/18 10:11:51;;;;;;;9.43;4.20;;;33.40;79.60;;;;;;6151540;23;20405;-75
2022/08/18 10:14:33;;;;;;;4.57;3.50;;;33.40;79.30;;;;;;6152262;23;20851;-77
2022/08/18 10:17:24;;;;;;;4.93;4.47;;;33.40;79.50;;;;;;6154265;23;20389;-75
2022/08/18 10:20:03;;;;;;;4.60;3.93;;;33.40;79.80;;;;;;6151812;23;20489;-77
2022/08/18 10:26:25;;;;;;;4.20;3.90;;;33.50;79.40;;;;;;6156461;23;20502;-94
2022/08/18 10:28:52;;;;;;;3.90;3.60;;;33.60;79.70;;;;;;6154780;23;20516;-93
2022/08/18 10:31:18;;;;;;;4.23;3.83;;;33.70;79.70;;;;;;6126934;23;20401;-94
2022/08/18 10:34:05;;;;;;;4.00;3.50;;;33.70;80.10;;;;;;6125843;23;20386;-94
2022/08/18 10:36:54;;;;;;;4.40;4.00;;;33.60;80.30;;;;;;6124948;23;20270;-94
2022/08/18 10:39:41;;;;;;;3.70;3.40;;;33.60;80.50;;;;;;6123043;23;20446;-94
2022/08/18 10:42:19;;;;;;;4.07;3.77;;;33.60;79.40;;;;;;6125650;23;20597;-95
2022/08/18 10:44:47;;;;;;;6.03;3.83;;;33.70;79.10;;;;;;6130908;23;20429;-94
2022/08/18 10:47:41;;;;;;;4.27;3.87;;;33.80;78.40;;;;;;6123342;23;20827;-94
2022/08/18 10:50:21;;;;;;;5.13;3.63;;;33.80;79.40;;;;;;6118151;23;20426;-93
2022/08/18 10:53:05;;;;;;;5.50;3.83;;;33.80;79.80;;;;;;6122145;23;20408;-95
2022/08/18 10:55:44;;;;;;;4.10;3.70;;;33.80;79.80;;;;;;6120229;23;20428;-94
2022/08/18 10:58:16;;;;;;;4.50;3.83;;;33.80;79.60;;;;;;6121924;23;20434;-94
2022/08/18 11:00:53;;;;;;;3.97;3.67;;;33.80;79.30;;;;;;6124289;23;20429;-94
2022/08/18 11:03:54;;;;;;;4.40;3.30;;;33.90;78.90;;;;;;6121024;23;20486;-93
2022/08/18 11:06:25;;;;;;;4.03;3.73;;;34.00;78.20;;;;;;6125431;23;20405;-96
2022/08/18 11:08:56;;;;;;;3.60;3.30;;;34.00;78.60;;;;;;6125576;23;20375;-94
2022/08/18 11:11:30;;;;;;;4.80;4.30;;;34.00;78.10;;;;;;6126007;23;20394;-94
2022/08/18 11:14:11;;;;;;;5.07;4.30;;;34.00;78.30;;;;;;6132617;23;20386;-94
2022/08/18 11:17:07;;;;;;;7.27;4.30;;;34.20;77.50;;;;;;6123473;23;20425;-96
2022/08/18 11:19:45;;;;;;;4.60;4.07;;;34.20;77.60;;;;;;6124109;23;20548;-95
2022/08/18 11:22:31;;;;;;;3.77;3.47;;;34.30;77.30;;;;;;6121047;23;20401;-96
2022/08/18 11:24:58;;;;;;;4.10;3.70;;;34.40;76.70;;;;;;6122615;23;20430;-95
2022/08/18 11:27:28;;;;;;;4.87;4.30;;;34.50;76.80;;;;;;6130104;23;20707;-94
2022/08/18 11:29:59;;;;;;;5.80;3.87;;;34.50;77.30;;;;;;6133260;23;20531;-96
2022/08/18 11:32:34;;;;;;;6.13;3.70;;;34.50;77.60;;;;;;6134266;23;20979;-94
2022/08/18 11:35:15;;;;;;;4.60;4.20;;;34.50;77.90;;;;;;6137135;23;20489;-95
2022/08/18 11:37:40;;;;;;;5.70;3.67;;;34.40;77.90;;;;;;6131394;23;20865;-94
2022/08/18 11:40:19;;;;;;;3.90;3.60;;;34.50;77.40;;;;;;6131517;23;20436;-95
2022/08/18 11:42:54;;;;;;;4.40;4.00;;;34.50;77.60;;;;;;6131209;23;20229;-94
2022/08/18 11:45:24;;;;;;;5.10;4.47;;;34.40;77.80;;;;;;6131711;23;20443;-94
2022/08/18 11:48:16;;;;;;;3.73;3.43;;;34.40;77.60;;;;;;6129872;23;20384;-94
2022/08/18 11:50:51;;;;;;;4.73;4.23;;;34.50;77.70;;;;;;6134490;23;20424;-96
2022/08/18 11:53:32;;;;;;;4.47;4.07;;;34.50;76.20;;;;;;6128145;23;20393;-95
2022/08/18 11:56:16;;;;;;;7.23;3.80;;;34.50;77.20;;;;;;6130380;23;20479;-95
2022/08/18 11:58:52;;;;;;;4.63;3.90;;;34.50;77.60;;;;;;6130326;23;20437;-94
2022/08/18 12:01:44;;;;;;;4.00;3.63;;;34.50;77.70;;;;;;6131052;23;20407;-95
2022/08/18 12:04:13;;;;;;;3.70;3.50;;;34.40;77.90;;;;;;6125198;23;20397;-94
2022/08/18 12:06:52;;;;;;;6.03;3.50;;;34.30;78.00;;;;;;6132646;23;20389;-95
2022/08/18 12:09:35;;;;;;;5.00;3.77;;;34.20;78.20;;;;;;6128252;23;20413;-94
2022/08/18 12:12:04;;;;;;;4.30;3.53;;;34.20;78.20;;;;;;6119952;23;20397;-93
2022/08/18 12:14:33;;;;;;;5.47;3.50;;;34.10;77.00;;;;;;6125051;23;20429;-94
2022/08/18 12:16:59;;;;;;;3.93;3.53;;;34.30;75.70;;;;;;6127027;23;20530;-96
2022/08/18 12:19:31;;;;;;;3.80;3.50;;;34.40;75.00;;;;;;6131288;23;20851;-95
2022/08/18 12:21:59;;;;;;;4.30;3.90;;;34.50;74.50;;;;;;6131046;23;20155;-94
2022/08/18 12:24:28;;;;;;;3.73;3.30;;;34.50;74.00;;;;;;6137810;23;20405;-95
2022/08/18 12:26:54;;;;;;;4.50;3.57;;;34.60;74.30;;;;;;6127484;23;20507;-96
2022/08/18 12:29:21;;;;;;;4.60;4.20;;;34.70;74.10;;;;;;6129162;23;20405;-94
2022/08/18 12:31:50;;;;;;;5.77;3.97;;;34.70;75.00;;;;;;6130819;23;20843;-94
2022/08/18 12:34:18;;;;;;;4.93;3.73;;;34.80;74.40;;;;;;6130062;23;20405;-95
2022/08/18 12:36:45;;;;;;;3.47;3.17;;;34.80;73.50;;;;;;6139375;23;20401;-94
2022/08/18 12:39:15;;;;;;;7.00;4.27;;;34.90;74.80;;;;;;6130735;23;20433;-95
2022/08/18 12:41:41;;;;;;;4.37;3.40;;;34.90;73.20;;;;;;6155756;23;20360;-95
2022/08/18 12:44:07;;;;;;;4.50;3.50;;;34.90;73.70;;;;;;6130917;23;20468;-94
2022/08/18 12:46:33;;;;;;;4.23;3.93;;;34.90;73.00;;;;;;6132380;23;20167;-94
2022/08/18 12:49:02;;;;;;;5.03;3.60;;;34.90;73.30;;;;;;6132283;23;20241;-96
2022/08/18 12:51:28;;;;;;;4.37;4.00;;;35.00;72.80;;;;;;6159341;23;20474;-95
2022/08/18 12:53:54;;;;;;;5.60;3.70;;;35.00;73.50;;;;;;6132162;23;20420;-95
2022/08/18 12:56:29;;;;;;;12.00;3.60;;;35.00;74.50;;;;;;6131535;23;20163;-95
2022/08/18 12:58:56;;;;;;;7.10;3.63;;;34.90;74.80;;;;;;6131373;23;20531;-94
2022/08/18 13:01:23;;;;;;;4.30;3.50;;;34.90;74.30;;;;;;6131907;23;20443;-94
2022/08/18 13:03:52;;;;;;;4.60;4.20;;;34.90;73.90;;;;;;6135049;23;20385;-94
2022/08/18 13:06:18;;;;;;;4.03;3.63;;;34.90;74.20;;;;;;6134733;23;20423;-95
2022/08/18 13:08:44;;;;;;;3.97;3.67;;;35.00;73.20;;;;;;6144134;23;20377;-94
2022/08/18 13:11:10;;;;;;;8.13;3.90;;;35.00;73.50;;;;;;6135576;23;20187;-95
2022/08/18 13:13:39;;;;;;;4.33;3.93;;;35.10;73.00;;;;;;6133848;23;20151;-95
2022/08/18 13:16:09;;;;;;;4.00;3.60;;;35.20;72.30;;;;;;6135361;23;20463;-95
2022/08/18 13:18:35;;;;;;;3.83;3.40;;;35.20;72.60;;;;;;6131184;23;20448;-94
2022/08/18 13:21:02;;;;;;;7.20;3.30;;;35.30;72.40;;;;;;6132445;23;20408;-96
2022/08/18 13:23:29;;;;;;;5.77;4.00;;;35.30;72.90;;;;;;6132610;23;20457;-95
2022/08/18 13:25:56;;;;;;;4.20;3.83;;;35.20;74.00;;;;;;6127368;23;20453;-96
2022/08/18 13:28:23;;;;;;;3.83;3.53;;;35.10;72.80;;;;;;6127520;23;20782;-94
2022/08/18 13:30:49;;;;;;;3.83;3.50;;;35.20;73.00;;;;;;6128393;23;20978;-96
2022/08/18 13:33:17;;;;;;;5.00;3.87;;;35.30;72.60;;;;;;6126794;23;20472;-95
2022/08/18 13:35:46;;;;;;;8.00;3.63;;;35.30;72.60;;;;;;6128662;23;20425;-96